sensor_id;sensor_type;location;lat;lon;timestamp;P1;durP1;ratioP1;P2;durP2;ratioP2
34302;SDS011;20785;50.020;19.916;2023-03-21T00:02:54;27.80;;;18.70;;
34302;SDS011;20785;50.020;19.916;2023-03-21T00:08:56;27.10;;;17.20;;
34302;SDS011;20785;50.020;19.916;2023-03-21T00:15:01;28.30;;;17.90;;
34302;SDS011;20785;50.020;19.916;2023-03-21T00:21:06;24.20;;;16.70;;
34302;SDS011;20785;50.020;19.916;2023-03-21T00:27:28;23.20;;;16.00;;
34302;SDS011;20785;50.020;19.916;2023-03-21T00:33:50;26.30;;;16.30;;
34302;SDS011;20785;50.020;19.916;2023-03-21T00:39:52;26.00;;;16.60;;
34302;SDS011;20785;50.020;19.916;2023-03-21T00:45:55;25.70;;;16.80;;
34302;SDS011;20785;50.020;19.916;2023-03-21T00:51:59;25.50;;;17.70;;
34302;SDS011;20785;50.020;19.916;2023-03-21T00:58:17;25.50;;;17.20;;
34302;SDS011;20785;50.020;19.916;2023-03-21T01:04:19;26.90;;;18.60;;
34302;SDS011;20785;50.020;19.916;2023-03-21T01:10:21;25.70;;;16.80;;
34302;SDS011;20785;50.020;19.916;2023-03-21T01:16:23;28.40;;;17.40;;
34302;SDS011;20785;50.020;19.916;2023-03-21T01:22:26;27.30;;;17.30;;
34302;SDS011;20785;50.020;19.916;2023-03-21T01:28:28;27.90;;;17.40;;
34302;SDS011;20785;50.020;19.916;2023-03-21T01:34:30;29.60;;;18.30;;
34302;SDS011;20785;50.020;19.916;2023-03-21T01:40:32;28.50;;;18.10;;
34302;SDS011;20785;50.020;19.916;2023-03-21T01:46:54;30.30;;;18.70;;
34302;SDS011;20785;50.020;19.916;2023-03-21T01:53:19;28.00;;;18.50;;
34302;SDS011;20785;50.020;19.916;2023-03-21T01:59:36;26.70;;;16.90;;
34302;SDS011;20785;50.020;19.916;2023-03-21T02:12:31;27.70;;;17.40;;
34302;SDS011;20785;50.020;19.916;2023-03-21T02:18:38;30.90;;;19.20;;
34302;SDS011;20785;50.020;19.916;2023-03-21T02:31:51;27.20;;;18.30;;
34302;SDS011;20785;50.020;19.916;2023-03-21T02:38:53;27.90;;;17.90;;
34302;SDS011;20785;50.020;19.916;2023-03-21T02:45:04;26.30;;;18.00;;
34302;SDS011;20785;50.020;19.916;2023-03-21T02:51:25;27.20;;;18.10;;
34302;SDS011;20785;50.020;19.916;2023-03-21T02:57:28;30.80;;;19.20;;
34302;SDS011;20785;50.020;19.916;2023-03-21T03:03:44;30.40;;;20.30;;
34302;SDS011;20785;50.020;19.916;2023-03-21T03:22:38;32.00;;;20.60;;
34302;SDS011;20785;50.020;19.916;2023-03-21T03:28:45;31.00;;;20.70;;
34302;SDS011;20785;50.020;19.916;2023-03-21T03:41:13;34.60;;;22.00;;
34302;SDS011;20785;50.020;19.916;2023-03-21T03:47:28;34.70;;;22.50;;
34302;SDS011;20785;50.020;19.916;2023-03-21T03:54:02;41.90;;;26.00;;
34302;SDS011;20785;50.020;19.916;2023-03-21T04:00:07;42.80;;;27.00;;
34302;SDS011;20785;50.020;19.916;2023-03-21T04:06:18;40.30;;;23.90;;
34302;SDS011;20785;50.020;19.916;2023-03-21T04:12:23;44.50;;;26.80;;
34302;SDS011;20785;50.020;19.916;2023-03-21T04:18:57;43.20;;;25.90;;
34302;SDS011;20785;50.020;19.916;2023-03-21T04:24:59;41.30;;;25.00;;
34302;SDS011;20785;50.020;19.916;2023-03-21T04:31:06;39.60;;;24.90;;
34302;SDS011;20785;50.020;19.916;2023-03-21T04:37:27;41.10;;;25.10;;
34302;SDS011;20785;50.020;19.916;2023-03-21T04:43:28;37.60;;;22.70;;
34302;SDS011;20785;50.020;19.916;2023-03-21T04:49:34;33.30;;;21.10;;
34302;SDS011;20785;50.020;19.916;2023-03-21T04:55:39;38.70;;;22.70;;
34302;SDS011;20785;50.020;19.916;2023-03-21T05:01:41;35.30;;;21.40;;
34302;SDS011;20785;50.020;19.916;2023-03-21T05:07:44;33.20;;;20.10;;
34302;SDS011;20785;50.020;19.916;2023-03-21T05:13:45;34.40;;;20.90;;
34302;SDS011;20785;50.020;19.916;2023-03-21T05:19:58;33.20;;;19.20;;
34302;SDS011;20785;50.020;19.916;2023-03-21T05:26:01;30.50;;;18.40;;
34302;SDS011;20785;50.020;19.916;2023-03-21T05:32:25;26.60;;;16.60;;
34302;SDS011;20785;50.020;19.916;2023-03-21T05:38:27;24.40;;;14.90;;
34302;SDS011;20785;50.020;19.916;2023-03-21T05:44:29;26.10;;;15.00;;
34302;SDS011;20785;50.020;19.916;2023-03-21T05:50:31;21.10;;;12.40;;
34302;SDS011;20785;50.020;19.916;2023-03-21T05:56:41;20.30;;;12.70;;
34302;SDS011;20785;50.020;19.916;2023-03-21T06:02:46;20.80;;;12.40;;
34302;SDS011;20785;50.020;19.916;2023-03-21T06:09:06;21.00;;;11.40;;
34302;SDS011;20785;50.020;19.916;2023-03-21T06:15:08;16.20;;;10.80;;
34302;SDS011;20785;50.020;19.916;2023-03-21T06:21:18;18.10;;;10.20;;
34302;SDS011;20785;50.020;19.916;2023-03-21T06:27:22;18.00;;;9.80;;
34302;SDS011;20785;50.020;19.916;2023-03-21T06:33:26;15.30;;;9.40;;
34302;SDS011;20785;50.020;19.916;2023-03-21T06:39:28;17.30;;;10.30;;
34302;SDS011;20785;50.020;19.916;2023-03-21T06:45:31;17.10;;;10.00;;
34302;SDS011;20785;50.020;19.916;2023-03-21T06:51:32;14.40;;;9.10;;
34302;SDS011;20785;50.020;19.916;2023-03-21T06:57:44;13.30;;;8.30;;
34302;SDS011;20785;50.020;19.916;2023-03-21T07:03:47;11.50;;;7.70;;
34302;SDS011;20785;50.020;19.916;2023-03-21T07:09:48;15.90;;;8.40;;
34302;SDS011;20785;50.020;19.916;2023-03-21T07:15:51;14.90;;;9.20;;
34302;SDS011;20785;50.020;19.916;2023-03-21T07:21:53;12.70;;;8.10;;
34302;SDS011;20785;50.020;19.916;2023-03-21T07:27:55;12.10;;;8.00;;
34302;SDS011;20785;50.020;19.916;2023-03-21T07:33:57;9.70;;;6.80;;
34302;SDS011;20785;50.020;19.916;2023-03-21T07:39:59;11.20;;;6.50;;
34302;SDS011;20785;50.020;19.916;2023-03-21T07:46:00;10.80;;;6.20;;
34302;SDS011;20785;50.020;19.916;2023-03-21T07:52:02;9.20;;;6.10;;
34302;SDS011;20785;50.020;19.916;2023-03-21T07:58:05;10.40;;;6.00;;
34302;SDS011;20785;50.020;19.916;2023-03-21T08:04:07;8.70;;;6.00;;
34302;SDS011;20785;50.020;19.916;2023-03-21T08:10:09;9.70;;;6.40;;
34302;SDS011;20785;50.020;19.916;2023-03-21T08:16:12;9.00;;;5.90;;
34302;SDS011;20785;50.020;19.916;2023-03-21T08:22:13;9.00;;;6.20;;
34302;SDS011;20785;50.020;19.916;2023-03-21T08:28:15;9.70;;;6.50;;
34302;SDS011;20785;50.020;19.916;2023-03-21T08:34:16;9.50;;;7.00;;
34302;SDS011;20785;50.020;19.916;2023-03-21T08:40:19;8.90;;;6.20;;
34302;SDS011;20785;50.020;19.916;2023-03-21T08:46:21;10.70;;;6.30;;
34302;SDS011;20785;50.020;19.916;2023-03-21T08:52:22;9.00;;;5.40;;
34302;SDS011;20785;50.020;19.916;2023-03-21T08:58:24;8.20;;;5.20;;
34302;SDS011;20785;50.020;19.916;2023-03-21T09:04:25;9.40;;;6.60;;
34302;SDS011;20785;50.020;19.916;2023-03-21T09:10:27;11.70;;;6.60;;
34302;SDS011;20785;50.020;19.916;2023-03-21T09:16:30;12.10;;;7.20;;
34302;SDS011;20785;50.020;19.916;2023-03-21T09:22:31;11.40;;;7.30;;
34302;SDS011;20785;50.020;19.916;2023-03-21T09:28:34;12.40;;;8.20;;
34302;SDS011;20785;50.020;19.916;2023-03-21T09:34:38;12.80;;;8.50;;
34302;SDS011;20785;50.020;19.916;2023-03-21T09:40:49;12.50;;;8.80;;
34302;SDS011;20785;50.020;19.916;2023-03-21T09:47:23;13.30;;;9.70;;
34302;SDS011;20785;50.020;19.916;2023-03-21T09:53:33;14.30;;;10.70;;
34302;SDS011;20785;50.020;19.916;2023-03-21T09:59:36;17.40;;;13.10;;
34302;SDS011;20785;50.020;19.916;2023-03-21T10:05:40;19.40;;;13.60;;
34302;SDS011;20785;50.020;19.916;2023-03-21T10:11:46;17.00;;;12.40;;
34302;SDS011;20785;50.020;19.916;2023-03-21T10:17:52;18.30;;;12.70;;
34302;SDS011;20785;50.020;19.916;2023-03-21T10:23:58;24.00;;;14.50;;
34302;SDS011;20785;50.020;19.916;2023-03-21T10:30:00;21.40;;;13.90;;
34302;SDS011;20785;50.020;19.916;2023-03-21T10:36:16;19.10;;;12.60;;
34302;SDS011;20785;50.020;19.916;2023-03-21T10:42:31;22.40;;;14.60;;
34302;SDS011;20785;50.020;19.916;2023-03-21T10:48:35;20.60;;;14.10;;
34302;SDS011;20785;50.020;19.916;2023-03-21T10:54:38;19.50;;;13.80;;
34302;SDS011;20785;50.020;19.916;2023-03-21T11:00:40;22.00;;;13.60;;
34302;SDS011;20785;50.020;19.916;2023-03-21T11:06:43;21.50;;;13.90;;
34302;SDS011;20785;50.020;19.916;2023-03-21T11:12:47;20.60;;;13.60;;
34302;SDS011;20785;50.020;19.916;2023-03-21T11:18:49;19.60;;;13.50;;
34302;SDS011;20785;50.020;19.916;2023-03-21T11:24:53;20.40;;;14.10;;
34302;SDS011;20785;50.020;19.916;2023-03-21T11:30:59;20.60;;;14.00;;
34302;SDS011;20785;50.020;19.916;2023-03-21T11:37:02;21.00;;;13.80;;
34302;SDS011;20785;50.020;19.916;2023-03-21T11:49:18;21.70;;;14.70;;
34302;SDS011;20785;50.020;19.916;2023-03-21T11:55:31;20.00;;;14.30;;
34302;SDS011;20785;50.020;19.916;2023-03-21T12:20:52;26.50;;;17.50;;
34302;SDS011;20785;50.020;19.916;2023-03-21T12:27:10;27.70;;;18.10;;
34302;SDS011;20785;50.020;19.916;2023-03-21T12:39:49;33.30;;;20.60;;
34302;SDS011;20785;50.020;19.916;2023-03-21T12:45:52;28.00;;;19.20;;
34302;SDS011;20785;50.020;19.916;2023-03-21T12:52:20;27.70;;;19.50;;
34302;SDS011;20785;50.020;19.916;2023-03-21T12:58:24;32.00;;;19.60;;
34302;SDS011;20785;50.020;19.916;2023-03-21T13:04:41;28.50;;;17.90;;
34302;SDS011;20785;50.020;19.916;2023-03-21T13:10:44;29.00;;;17.90;;
34302;SDS011;20785;50.020;19.916;2023-03-21T13:16:47;29.40;;;18.50;;
34302;SDS011;20785;50.020;19.916;2023-03-21T13:22:56;31.80;;;20.10;;
34302;SDS011;20785;50.020;19.916;2023-03-21T13:28:58;31.00;;;19.80;;
34302;SDS011;20785;50.020;19.916;2023-03-21T13:35:03;31.30;;;20.10;;
34302;SDS011;20785;50.020;19.916;2023-03-21T13:41:35;33.50;;;21.60;;
34302;SDS011;20785;50.020;19.916;2023-03-21T13:47:52;31.30;;;20.90;;
34302;SDS011;20785;50.020;19.916;2023-03-21T13:53:59;32.90;;;20.50;;
34302;SDS011;20785;50.020;19.916;2023-03-21T14:06:35;28.70;;;19.30;;
34302;SDS011;20785;50.020;19.916;2023-03-21T14:12:40;34.50;;;21.40;;
34302;SDS011;20785;50.020;19.916;2023-03-21T14:18:47;31.60;;;20.90;;
34302;SDS011;20785;50.020;19.916;2023-03-21T14:24:58;31.10;;;19.70;;
34302;SDS011;20785;50.020;19.916;2023-03-21T14:31:00;34.20;;;21.40;;
34302;SDS011;20785;50.020;19.916;2023-03-21T14:37:05;33.20;;;22.10;;
34302;SDS011;20785;50.020;19.916;2023-03-21T14:43:10;35.70;;;21.50;;
34302;SDS011;20785;50.020;19.916;2023-03-21T14:49:19;37.80;;;22.80;;
34302;SDS011;20785;50.020;19.916;2023-03-21T14:55:26;37.70;;;23.40;;
34302;SDS011;20785;50.020;19.916;2023-03-21T15:01:28;31.50;;;20.40;;
34302;SDS011;20785;50.020;19.916;2023-03-21T15:07:33;29.30;;;19.30;;
34302;SDS011;20785;50.020;19.916;2023-03-21T15:13:35;29.40;;;19.70;;
34302;SDS011;20785;50.020;19.916;2023-03-21T15:19:40;34.50;;;21.30;;
34302;SDS011;20785;50.020;19.916;2023-03-21T15:25:43;36.20;;;22.80;;
34302;SDS011;20785;50.020;19.916;2023-03-21T15:31:46;43.00;;;25.00;;
34302;SDS011;20785;50.020;19.916;2023-03-21T15:37:52;39.10;;;23.10;;
34302;SDS011;20785;50.020;19.916;2023-03-21T15:50:15;32.10;;;20.10;;
34302;SDS011;20785;50.020;19.916;2023-03-21T15:56:25;35.10;;;21.00;;
34302;SDS011;20785;50.020;19.916;2023-03-21T16:02:35;37.70;;;22.30;;
34302;SDS011;20785;50.020;19.916;2023-03-21T16:08:41;39.70;;;22.80;;
34302;SDS011;20785;50.020;19.916;2023-03-21T16:14:43;38.70;;;24.00;;
34302;SDS011;20785;50.020;19.916;2023-03-21T16:20:44;40.90;;;23.30;;
34302;SDS011;20785;50.020;19.916;2023-03-21T16:26:47;40.00;;;24.70;;
34302;SDS011;20785;50.020;19.916;2023-03-21T16:32:52;38.80;;;24.00;;
34302;SDS011;20785;50.020;19.916;2023-03-21T16:38:54;36.40;;;22.40;;
34302;SDS011;20785;50.020;19.916;2023-03-21T16:44:56;38.70;;;23.10;;
34302;SDS011;20785;50.020;19.916;2023-03-21T16:50:57;39.70;;;23.80;;
34302;SDS011;20785;50.020;19.916;2023-03-21T16:57:00;39.40;;;22.70;;
34302;SDS011;20785;50.020;19.916;2023-03-21T17:03:08;40.90;;;24.40;;
34302;SDS011;20785;50.020;19.916;2023-03-21T17:09:15;40.10;;;23.00;;
34302;SDS011;20785;50.020;19.916;2023-03-21T17:15:20;39.20;;;23.10;;
34302;SDS011;20785;50.020;19.916;2023-03-21T17:21:23;44.30;;;25.00;;
34302;SDS011;20785;50.020;19.916;2023-03-21T17:27:26;43.00;;;25.30;;
34302;SDS011;20785;50.020;19.916;2023-03-21T17:33:28;47.10;;;26.10;;
34302;SDS011;20785;50.020;19.916;2023-03-21T17:39:31;43.30;;;25.00;;
34302;SDS011;20785;50.020;19.916;2023-03-21T17:45:33;41.30;;;23.90;;
34302;SDS011;20785;50.020;19.916;2023-03-21T17:51:34;37.90;;;22.70;;
34302;SDS011;20785;50.020;19.916;2023-03-21T17:57:37;40.70;;;23.60;;
34302;SDS011;20785;50.020;19.916;2023-03-21T18:03:39;42.70;;;24.10;;
34302;SDS011;20785;50.020;19.916;2023-03-21T18:09:41;40.90;;;23.50;;
34302;SDS011;20785;50.020;19.916;2023-03-21T18:15:43;39.40;;;22.80;;
34302;SDS011;20785;50.020;19.916;2023-03-21T18:21:46;42.50;;;23.70;;
34302;SDS011;20785;50.020;19.916;2023-03-21T18:27:48;30.30;;;18.40;;
34302;SDS011;20785;50.020;19.916;2023-03-21T18:34:10;26.20;;;16.90;;
34302;SDS011;20785;50.020;19.916;2023-03-21T18:40:11;33.90;;;20.90;;
34302;SDS011;20785;50.020;19.916;2023-03-21T18:46:14;30.60;;;18.70;;
34302;SDS011;20785;50.020;19.916;2023-03-21T18:52:16;40.60;;;23.60;;
34302;SDS011;20785;50.020;19.916;2023-03-21T18:58:18;36.50;;;21.60;;
34302;SDS011;20785;50.020;19.916;2023-03-21T19:04:20;33.20;;;20.10;;
34302;SDS011;20785;50.020;19.916;2023-03-21T19:10:30;36.30;;;21.50;;
34302;SDS011;20785;50.020;19.916;2023-03-21T19:16:32;34.70;;;20.20;;
34302;SDS011;20785;50.020;19.916;2023-03-21T19:22:54;40.40;;;22.70;;
34302;SDS011;20785;50.020;19.916;2023-03-21T19:28:56;38.40;;;22.60;;
34302;SDS011;20785;50.020;19.916;2023-03-21T19:34:58;36.70;;;22.00;;
34302;SDS011;20785;50.020;19.916;2023-03-21T19:41:00;43.50;;;24.70;;
34302;SDS011;20785;50.020;19.916;2023-03-21T19:47:03;37.40;;;22.50;;
34302;SDS011;20785;50.020;19.916;2023-03-21T19:53:05;37.00;;;21.80;;
34302;SDS011;20785;50.020;19.916;2023-03-21T19:59:07;35.20;;;21.10;;
34302;SDS011;20785;50.020;19.916;2023-03-21T20:05:10;40.30;;;22.20;;
34302;SDS011;20785;50.020;19.916;2023-03-21T20:11:12;37.50;;;22.10;;
34302;SDS011;20785;50.020;19.916;2023-03-21T20:17:15;39.30;;;23.00;;
34302;SDS011;20785;50.020;19.916;2023-03-21T20:23:19;37.10;;;22.60;;
34302;SDS011;20785;50.020;19.916;2023-03-21T20:29:21;40.70;;;23.80;;
34302;SDS011;20785;50.020;19.916;2023-03-21T20:35:44;40.20;;;22.20;;
34302;SDS011;20785;50.020;19.916;2023-03-21T20:42:06;45.50;;;23.70;;
34302;SDS011;20785;50.020;19.916;2023-03-21T20:48:07;39.30;;;23.80;;
34302;SDS011;20785;50.020;19.916;2023-03-21T20:54:09;44.20;;;25.70;;
34302;SDS011;20785;50.020;19.916;2023-03-21T21:00:12;41.50;;;25.10;;
34302;SDS011;20785;50.020;19.916;2023-03-21T21:06:20;51.70;;;29.70;;
34302;SDS011;20785;50.020;19.916;2023-03-21T21:12:23;39.40;;;24.20;;
34302;SDS011;20785;50.020;19.916;2023-03-21T21:18:28;45.90;;;25.60;;
34302;SDS011;20785;50.020;19.916;2023-03-21T21:24:30;46.70;;;26.80;;
34302;SDS011;20785;50.020;19.916;2023-03-21T21:30:32;45.00;;;26.00;;
34302;SDS011;20785;50.020;19.916;2023-03-21T21:36:38;56.20;;;31.00;;
34302;SDS011;20785;50.020;19.916;2023-03-21T21:42:47;53.50;;;30.50;;
34302;SDS011;20785;50.020;19.916;2023-03-21T21:48:49;68.00;;;37.00;;
34302;SDS011;20785;50.020;19.916;2023-03-21T21:54:51;56.60;;;31.90;;
34302;SDS011;20785;50.020;19.916;2023-03-21T22:00:52;63.80;;;35.50;;
34302;SDS011;20785;50.020;19.916;2023-03-21T22:06:59;52.20;;;29.50;;
34302;SDS011;20785;50.020;19.916;2023-03-21T22:13:05;64.50;;;33.70;;
34302;SDS011;20785;50.020;19.916;2023-03-21T22:19:07;56.70;;;31.20;;
34302;SDS011;20785;50.020;19.916;2023-03-21T22:25:10;53.20;;;31.20;;
34302;SDS011;20785;50.020;19.916;2023-03-21T22:31:14;54.20;;;31.80;;
34302;SDS011;20785;50.020;19.916;2023-03-21T22:37:16;56.30;;;31.50;;
34302;SDS011;20785;50.020;19.916;2023-03-21T22:43:17;61.70;;;34.00;;
34302;SDS011;20785;50.020;19.916;2023-03-21T22:49:19;57.60;;;31.80;;
34302;SDS011;20785;50.020;19.916;2023-03-21T22:55:20;60.10;;;33.80;;
34302;SDS011;20785;50.020;19.916;2023-03-21T23:01:22;56.70;;;32.20;;
34302;SDS011;20785;50.020;19.916;2023-03-21T23:07:23;61.90;;;33.90;;
34302;SDS011;20785;50.020;19.916;2023-03-21T23:13:25;57.10;;;31.70;;
34302;SDS011;20785;50.020;19.916;2023-03-21T23:19:28;53.30;;;31.00;;
34302;SDS011;20785;50.020;19.916;2023-03-21T23:25:30;62.90;;;34.60;;
34302;SDS011;20785;50.020;19.916;2023-03-21T23:31:34;72.20;;;37.90;;
34302;SDS011;20785;50.020;19.916;2023-03-21T23:37:35;63.40;;;35.30;;
34302;SDS011;20785;50.020;19.916;2023-03-21T23:43:37;56.80;;;31.90;;
34302;SDS011;20785;50.020;19.916;2023-03-21T23:49:39;57.70;;;32.90;;
34302;SDS011;20785;50.020;19.916;2023-03-21T23:55:41;61.30;;;33.50;;
